sensor_id;sensor_type;location;lat;lon;timestamp;temperature;humidity
56300;DHT22;42209;6.376;-10.782;2022-10-16T00:01:41;22.70;66.70
56300;DHT22;42209;6.376;-10.782;2022-10-16T00:04:09;22.80;69.90
56300;DHT22;42209;6.376;-10.782;2022-10-16T00:06:38;22.90;71.20
56300;DHT22;42209;6.376;-10.782;2022-10-16T00:09:08;23.00;72.20
56300;DHT22;42209;6.376;-10.782;2022-10-16T00:11:38;23.10;73.30
56300;DHT22;42209;6.376;-10.782;2022-10-16T00:14:10;23.10;74.00
56300;DHT22;42209;6.376;-10.782;2022-10-16T00:16:39;23.20;74.80
56300;DHT22;42209;6.376;-10.782;2022-10-16T00:19:07;23.20;75.30
56300;DHT22;42209;6.376;-10.782;2022-10-16T00:21:36;23.30;75.40
56300;DHT22;42209;6.376;-10.782;2022-10-16T00:24:07;23.30;75.60
56300;DHT22;42209;6.376;-10.782;2022-10-16T00:26:37;23.40;75.30
56300;DHT22;42209;6.376;-10.782;2022-10-16T00:29:06;23.40;75.40
56300;DHT22;42209;6.376;-10.782;2022-10-16T00:31:33;23.30;68.10
56300;DHT22;42209;6.376;-10.782;2022-10-16T00:34:02;23.00;65.40
56300;DHT22;42209;6.376;-10.782;2022-10-16T00:36:30;22.70;65.10
56300;DHT22;42209;6.376;-10.782;2022-10-16T00:38:58;22.80;69.30
56300;DHT22;42209;6.376;-10.782;2022-10-16T00:41:32;22.90;71.50
56300;DHT22;42209;6.376;-10.782;2022-10-16T00:44:03;23.00;72.60
56300;DHT22;42209;6.376;-10.782;2022-10-16T00:49:10;23.10;74.30
56300;DHT22;42209;6.376;-10.782;2022-10-16T00:51:51;23.20;75.30
56300;DHT22;42209;6.376;-10.782;2022-10-16T00:54:23;23.20;75.70
56300;DHT22;42209;6.376;-10.782;2022-10-16T00:56:53;23.20;76.20
56300;DHT22;42209;6.376;-10.782;2022-10-16T00:59:37;23.30;76.10
56300;DHT22;42209;6.376;-10.782;2022-10-16T01:02:08;23.40;75.70
56300;DHT22;42209;6.376;-10.782;2022-10-16T01:04:42;23.40;75.40
56300;DHT22;42209;6.376;-10.782;2022-10-16T01:21:23;23.00;73.10
56300;DHT22;42209;6.376;-10.782;2022-10-16T01:32:38;23.20;76.20
56300;DHT22;42209;6.376;-10.782;2022-10-16T01:35:17;23.30;76.30
56300;DHT22;42209;6.376;-10.782;2022-10-16T01:37:59;23.30;76.00
56300;DHT22;42209;6.376;-10.782;2022-10-16T01:40:31;23.40;75.80
56300;DHT22;42209;6.376;-10.782;2022-10-16T01:43:04;23.20;68.90
56300;DHT22;42209;6.376;-10.782;2022-10-16T01:45:33;23.00;65.70
56300;DHT22;42209;6.376;-10.782;2022-10-16T01:48:03;22.60;63.90
56300;DHT22;42209;6.376;-10.782;2022-10-16T01:50:37;22.70;68.60
56300;DHT22;42209;6.376;-10.782;2022-10-16T01:53:09;22.70;70.90
56300;DHT22;42209;6.376;-10.782;2022-10-16T01:55:42;22.90;72.20
56300;DHT22;42209;6.376;-10.782;2022-10-16T01:58:13;23.00;73.30
56300;DHT22;42209;6.376;-10.782;2022-10-16T02:00:44;23.00;74.00
56300;DHT22;42209;6.376;-10.782;2022-10-16T02:03:17;23.10;74.80
56300;DHT22;42209;6.376;-10.782;2022-10-16T02:06:10;23.20;75.60
56300;DHT22;42209;6.376;-10.782;2022-10-16T02:08:39;23.20;76.10
56300;DHT22;42209;6.376;-10.782;2022-10-16T02:11:08;23.20;76.60
56300;DHT22;42209;6.376;-10.782;2022-10-16T02:13:41;23.20;76.50
56300;DHT22;42209;6.376;-10.782;2022-10-16T02:16:11;23.30;76.40
56300;DHT22;42209;6.376;-10.782;2022-10-16T02:18:41;23.40;76.00
56300;DHT22;42209;6.376;-10.782;2022-10-16T02:29:13;22.70;69.70
56300;DHT22;42209;6.376;-10.782;2022-10-16T02:31:47;22.80;72.00
56300;DHT22;42209;6.376;-10.782;2022-10-16T02:34:18;23.00;73.10
56300;DHT22;42209;6.376;-10.782;2022-10-16T02:36:49;23.00;74.20
56300;DHT22;42209;6.376;-10.782;2022-10-16T02:39:19;23.10;75.10
56300;DHT22;42209;6.376;-10.782;2022-10-16T02:41:48;23.10;75.60
56300;DHT22;42209;6.376;-10.782;2022-10-16T02:44:16;23.20;76.50
56300;DHT22;42209;6.376;-10.782;2022-10-16T02:46:44;23.20;76.90
56300;DHT22;42209;6.376;-10.782;2022-10-16T02:49:12;23.20;77.70
56300;DHT22;42209;6.376;-10.782;2022-10-16T02:51:40;23.30;76.80
56300;DHT22;42209;6.376;-10.782;2022-10-16T02:54:08;23.30;76.50
56300;DHT22;42209;6.376;-10.782;2022-10-16T02:56:36;23.40;75.00
56300;DHT22;42209;6.376;-10.782;2022-10-16T02:59:05;23.20;68.80
56300;DHT22;42209;6.376;-10.782;2022-10-16T03:01:33;22.80;65.60
56300;DHT22;42209;6.376;-10.782;2022-10-16T03:04:03;22.60;67.00
56300;DHT22;42209;6.376;-10.782;2022-10-16T03:06:31;22.70;70.90
56300;DHT22;42209;6.376;-10.782;2022-10-16T03:08:59;22.80;72.50
56300;DHT22;42209;6.376;-10.782;2022-10-16T03:11:27;22.90;73.50
56300;DHT22;42209;6.376;-10.782;2022-10-16T03:13:55;23.00;74.40
56300;DHT22;42209;6.376;-10.782;2022-10-16T03:16:23;23.00;75.20
56300;DHT22;42209;6.376;-10.782;2022-10-16T03:18:52;23.10;75.80
56300;DHT22;42209;6.376;-10.782;2022-10-16T03:21:20;23.10;76.60
56300;DHT22;42209;6.376;-10.782;2022-10-16T03:23:48;23.10;77.10
56300;DHT22;42209;6.376;-10.782;2022-10-16T03:26:16;23.10;77.20
56300;DHT22;42209;6.376;-10.782;2022-10-16T03:28:44;23.20;76.90
56300;DHT22;42209;6.376;-10.782;2022-10-16T03:31:13;23.30;76.50
56300;DHT22;42209;6.376;-10.782;2022-10-16T03:33:41;23.40;76.50
56300;DHT22;42209;6.376;-10.782;2022-10-16T03:36:09;23.30;70.40
56300;DHT22;42209;6.376;-10.782;2022-10-16T03:38:37;23.00;66.70
56300;DHT22;42209;6.376;-10.782;2022-10-16T03:41:05;22.70;67.10
56300;DHT22;42209;6.376;-10.782;2022-10-16T03:43:34;22.70;71.20
56300;DHT22;42209;6.376;-10.782;2022-10-16T03:46:02;22.80;73.00
56300;DHT22;42209;6.376;-10.782;2022-10-16T03:48:30;22.90;74.10
56300;DHT22;42209;6.376;-10.782;2022-10-16T03:50:59;23.00;75.00
56300;DHT22;42209;6.376;-10.782;2022-10-16T03:53:27;23.00;75.60
56300;DHT22;42209;6.376;-10.782;2022-10-16T03:55:55;23.10;76.60
56300;DHT22;42209;6.376;-10.782;2022-10-16T03:58:23;23.10;77.30
56300;DHT22;42209;6.376;-10.782;2022-10-16T04:00:51;23.10;77.40
56300;DHT22;42209;6.376;-10.782;2022-10-16T04:03:20;23.20;77.40
56300;DHT22;42209;6.376;-10.782;2022-10-16T04:05:48;23.20;77.20
56300;DHT22;42209;6.376;-10.782;2022-10-16T04:08:17;23.30;76.60
56300;DHT22;42209;6.376;-10.782;2022-10-16T04:10:45;23.30;70.10
56300;DHT22;42209;6.376;-10.782;2022-10-16T04:13:13;22.90;66.80
56300;DHT22;42209;6.376;-10.782;2022-10-16T04:15:42;22.70;67.30
56300;DHT22;42209;6.376;-10.782;2022-10-16T04:18:10;22.70;71.90
56300;DHT22;42209;6.376;-10.782;2022-10-16T04:20:38;22.80;73.50
56300;DHT22;42209;6.376;-10.782;2022-10-16T04:23:06;22.90;74.50
56300;DHT22;42209;6.376;-10.782;2022-10-16T04:25:34;23.00;75.50
56300;DHT22;42209;6.376;-10.782;2022-10-16T04:28:03;23.00;76.20
56300;DHT22;42209;6.376;-10.782;2022-10-16T04:30:31;23.10;77.00
56300;DHT22;42209;6.376;-10.782;2022-10-16T04:32:59;23.10;77.50
56300;DHT22;42209;6.376;-10.782;2022-10-16T04:35:32;23.10;77.70
56300;DHT22;42209;6.376;-10.782;2022-10-16T04:38:00;23.10;77.50
56300;DHT22;42209;6.376;-10.782;2022-10-16T04:40:28;23.20;77.20
56300;DHT22;42209;6.376;-10.782;2022-10-16T04:42:56;23.30;76.80
56300;DHT22;42209;6.376;-10.782;2022-10-16T04:45:25;23.30;72.40
56300;DHT22;42209;6.376;-10.782;2022-10-16T04:47:57;23.10;67.70
56300;DHT22;42209;6.376;-10.782;2022-10-16T04:50:25;22.70;65.80
56300;DHT22;42209;6.376;-10.782;2022-10-16T04:53:05;22.60;68.70
56300;DHT22;42209;6.376;-10.782;2022-10-16T04:55:33;22.60;72.10
56300;DHT22;42209;6.376;-10.782;2022-10-16T04:58:02;22.80;73.30
56300;DHT22;42209;6.376;-10.782;2022-10-16T05:00:30;22.90;74.30
56300;DHT22;42209;6.376;-10.782;2022-10-16T05:02:58;23.00;75.20
56300;DHT22;42209;6.376;-10.782;2022-10-16T05:05:28;23.00;76.10
56300;DHT22;42209;6.376;-10.782;2022-10-16T05:07:56;23.00;76.80
56300;DHT22;42209;6.376;-10.782;2022-10-16T05:10:24;23.00;77.20
56300;DHT22;42209;6.376;-10.782;2022-10-16T05:12:52;23.10;77.70
56300;DHT22;42209;6.376;-10.782;2022-10-16T05:15:20;23.10;77.60
56300;DHT22;42209;6.376;-10.782;2022-10-16T05:17:52;23.20;77.30
56300;DHT22;42209;6.376;-10.782;2022-10-16T05:20:21;23.20;77.10
56300;DHT22;42209;6.376;-10.782;2022-10-16T05:22:50;23.30;76.70
56300;DHT22;42209;6.376;-10.782;2022-10-16T05:25:18;23.30;71.40
56300;DHT22;42209;6.376;-10.782;2022-10-16T05:27:49;23.00;66.70
56300;DHT22;42209;6.376;-10.782;2022-10-16T05:30:18;22.60;66.30
56300;DHT22;42209;6.376;-10.782;2022-10-16T05:32:50;22.60;70.80
56300;DHT22;42209;6.376;-10.782;2022-10-16T05:35:19;22.70;73.00
56300;DHT22;42209;6.376;-10.782;2022-10-16T05:37:47;22.80;74.40
56300;DHT22;42209;6.376;-10.782;2022-10-16T05:40:16;22.90;75.30
56300;DHT22;42209;6.376;-10.782;2022-10-16T05:42:45;23.00;76.00
56300;DHT22;42209;6.376;-10.782;2022-10-16T05:45:13;23.00;76.80
56300;DHT22;42209;6.376;-10.782;2022-10-16T05:47:41;23.10;77.50
56300;DHT22;42209;6.376;-10.782;2022-10-16T05:50:09;23.10;78.00
56300;DHT22;42209;6.376;-10.782;2022-10-16T05:52:37;23.10;78.30
56300;DHT22;42209;6.376;-10.782;2022-10-16T05:55:06;23.10;78.00
56300;DHT22;42209;6.376;-10.782;2022-10-16T05:57:34;23.20;77.40
56300;DHT22;42209;6.376;-10.782;2022-10-16T06:00:03;23.30;77.20
56300;DHT22;42209;6.376;-10.782;2022-10-16T06:02:38;23.30;72.70
56300;DHT22;42209;6.376;-10.782;2022-10-16T06:05:06;23.00;67.70
56300;DHT22;42209;6.376;-10.782;2022-10-16T06:07:35;22.70;65.20
56300;DHT22;42209;6.376;-10.782;2022-10-16T06:10:05;22.60;70.00
56300;DHT22;42209;6.376;-10.782;2022-10-16T06:12:33;22.70;72.50
56300;DHT22;42209;6.376;-10.782;2022-10-16T06:15:01;22.70;73.70
56300;DHT22;42209;6.376;-10.782;2022-10-16T06:17:29;22.80;74.80
56300;DHT22;42209;6.376;-10.782;2022-10-16T06:19:57;22.90;75.70
56300;DHT22;42209;6.376;-10.782;2022-10-16T06:22:25;23.00;76.60
56300;DHT22;42209;6.376;-10.782;2022-10-16T06:24:54;23.00;77.30
56300;DHT22;42209;6.376;-10.782;2022-10-16T06:27:22;23.00;78.00
56300;DHT22;42209;6.376;-10.782;2022-10-16T06:29:50;23.10;78.40
56300;DHT22;42209;6.376;-10.782;2022-10-16T06:32:18;23.10;78.30
56300;DHT22;42209;6.376;-10.782;2022-10-16T06:34:46;23.10;78.10
56300;DHT22;42209;6.376;-10.782;2022-10-16T06:37:14;23.20;77.80
56300;DHT22;42209;6.376;-10.782;2022-10-16T06:39:43;23.30;77.60
56300;DHT22;42209;6.376;-10.782;2022-10-16T06:42:11;23.30;75.20
56300;DHT22;42209;6.376;-10.782;2022-10-16T06:44:39;23.10;69.50
56300;DHT22;42209;6.376;-10.782;2022-10-16T06:47:07;22.70;66.50
56300;DHT22;42209;6.376;-10.782;2022-10-16T06:49:35;22.60;70.80
56300;DHT22;42209;6.376;-10.782;2022-10-16T06:52:04;22.70;73.70
56300;DHT22;42209;6.376;-10.782;2022-10-16T06:54:32;22.80;75.00
56300;DHT22;42209;6.376;-10.782;2022-10-16T06:57:09;22.80;75.70
56300;DHT22;42209;6.376;-10.782;2022-10-16T06:59:37;22.90;76.90
56300;DHT22;42209;6.376;-10.782;2022-10-16T07:02:05;23.00;77.30
56300;DHT22;42209;6.376;-10.782;2022-10-16T07:04:33;23.00;78.30
56300;DHT22;42209;6.376;-10.782;2022-10-16T07:07:03;23.10;78.80
56300;DHT22;42209;6.376;-10.782;2022-10-16T07:09:35;23.10;79.00
56300;DHT22;42209;6.376;-10.782;2022-10-16T07:12:04;23.10;78.70
56300;DHT22;42209;6.376;-10.782;2022-10-16T07:14:32;23.20;78.20
56300;DHT22;42209;6.376;-10.782;2022-10-16T07:17:00;23.20;77.80
56300;DHT22;42209;6.376;-10.782;2022-10-16T07:19:28;23.30;75.40
56300;DHT22;42209;6.376;-10.782;2022-10-16T07:22:01;23.00;69.40
56300;DHT22;42209;6.376;-10.782;2022-10-16T07:24:29;22.70;66.50
56300;DHT22;42209;6.376;-10.782;2022-10-16T07:26:57;22.60;69.30
56300;DHT22;42209;6.376;-10.782;2022-10-16T07:29:25;22.70;73.10
56300;DHT22;42209;6.376;-10.782;2022-10-16T07:31:53;22.70;74.50
56300;DHT22;42209;6.376;-10.782;2022-10-16T07:34:21;22.80;75.50
56300;DHT22;42209;6.376;-10.782;2022-10-16T07:36:50;22.90;76.50
56300;DHT22;42209;6.376;-10.782;2022-10-16T07:39:18;23.00;77.40
56300;DHT22;42209;6.376;-10.782;2022-10-16T07:41:46;23.00;77.80
56300;DHT22;42209;6.376;-10.782;2022-10-16T07:44:15;23.00;78.60
56300;DHT22;42209;6.376;-10.782;2022-10-16T07:46:44;23.10;79.10
56300;DHT22;42209;6.376;-10.782;2022-10-16T07:49:12;23.10;78.90
56300;DHT22;42209;6.376;-10.782;2022-10-16T07:51:40;23.10;78.50
56300;DHT22;42209;6.376;-10.782;2022-10-16T07:54:09;23.20;78.30
56300;DHT22;42209;6.376;-10.782;2022-10-16T07:56:38;23.30;77.90
56300;DHT22;42209;6.376;-10.782;2022-10-16T07:59:10;23.20;71.60
56300;DHT22;42209;6.376;-10.782;2022-10-16T08:01:38;22.90;68.10
56300;DHT22;42209;6.376;-10.782;2022-10-16T08:04:07;22.60;66.50
56300;DHT22;42209;6.376;-10.782;2022-10-16T08:06:37;22.60;70.60
56300;DHT22;42209;6.376;-10.782;2022-10-16T08:09:07;22.70;73.60
56300;DHT22;42209;6.376;-10.782;2022-10-16T08:11:36;22.70;74.60
56300;DHT22;42209;6.376;-10.782;2022-10-16T08:14:04;22.80;75.40
56300;DHT22;42209;6.376;-10.782;2022-10-16T08:16:32;22.90;76.50
56300;DHT22;42209;6.376;-10.782;2022-10-16T08:19:00;23.00;77.40
56300;DHT22;42209;6.376;-10.782;2022-10-16T08:21:28;23.00;77.80
56300;DHT22;42209;6.376;-10.782;2022-10-16T08:23:57;23.00;78.70
56300;DHT22;42209;6.376;-10.782;2022-10-16T08:26:26;23.10;79.20
56300;DHT22;42209;6.376;-10.782;2022-10-16T08:28:55;23.10;79.40
56300;DHT22;42209;6.376;-10.782;2022-10-16T08:31:24;23.10;79.00
56300;DHT22;42209;6.376;-10.782;2022-10-16T08:33:52;23.20;78.60
56300;DHT22;42209;6.376;-10.782;2022-10-16T08:36:21;23.30;78.40
56300;DHT22;42209;6.376;-10.782;2022-10-16T08:38:50;23.20;73.90
56300;DHT22;42209;6.376;-10.782;2022-10-16T08:49:17;22.70;74.70
56300;DHT22;42209;6.376;-10.782;2022-10-16T08:51:45;22.80;75.90
56300;DHT22;42209;6.376;-10.782;2022-10-16T08:54:26;22.90;76.90
56300;DHT22;42209;6.376;-10.782;2022-10-16T08:57:20;22.90;77.80
56300;DHT22;42209;6.376;-10.782;2022-10-16T08:59:52;23.00;78.60
56300;DHT22;42209;6.376;-10.782;2022-10-16T09:02:38;23.00;79.20
56300;DHT22;42209;6.376;-10.782;2022-10-16T09:08:09;23.10;79.60
56300;DHT22;42209;6.376;-10.782;2022-10-16T09:13:19;23.20;78.90
56300;DHT22;42209;6.376;-10.782;2022-10-16T09:21:40;22.60;66.80
56300;DHT22;42209;6.376;-10.782;2022-10-16T09:24:21;22.50;72.10
56300;DHT22;42209;6.376;-10.782;2022-10-16T09:26:54;22.60;74.70
56300;DHT22;42209;6.376;-10.782;2022-10-16T09:29:23;22.70;76.00
56300;DHT22;42209;6.376;-10.782;2022-10-16T09:31:52;22.80;77.10
56300;DHT22;42209;6.376;-10.782;2022-10-16T09:34:34;22.90;77.90
56300;DHT22;42209;6.376;-10.782;2022-10-16T09:37:09;23.00;79.00
56300;DHT22;42209;6.376;-10.782;2022-10-16T09:39:52;23.00;79.40
56300;DHT22;42209;6.376;-10.782;2022-10-16T09:42:27;23.10;80.00
56300;DHT22;42209;6.376;-10.782;2022-10-16T09:44:58;23.10;80.60
56300;DHT22;42209;6.376;-10.782;2022-10-16T09:47:28;23.10;80.90
56300;DHT22;42209;6.376;-10.782;2022-10-16T09:49:59;23.20;80.70
56300;DHT22;42209;6.376;-10.782;2022-10-16T09:52:28;23.20;80.40
56300;DHT22;42209;6.376;-10.782;2022-10-16T09:55:02;23.30;80.20
56300;DHT22;42209;6.376;-10.782;2022-10-16T09:57:54;23.30;75.50
56300;DHT22;42209;6.376;-10.782;2022-10-16T10:00:24;22.90;70.40
56300;DHT22;42209;6.376;-10.782;2022-10-16T10:02:54;22.70;68.10
56300;DHT22;42209;6.376;-10.782;2022-10-16T10:05:28;22.60;71.90
56300;DHT22;42209;6.376;-10.782;2022-10-16T10:08:01;22.70;75.40
56300;DHT22;42209;6.376;-10.782;2022-10-16T10:10:36;22.80;76.60
56300;DHT22;42209;6.376;-10.782;2022-10-16T10:13:24;23.00;77.40
56300;DHT22;42209;6.376;-10.782;2022-10-16T10:15:53;23.00;79.10
56300;DHT22;42209;6.376;-10.782;2022-10-16T10:18:22;23.10;79.20
56300;DHT22;42209;6.376;-10.782;2022-10-16T10:20:59;23.10;79.90
56300;DHT22;42209;6.376;-10.782;2022-10-16T10:23:29;23.20;80.40
56300;DHT22;42209;6.376;-10.782;2022-10-16T10:26:13;23.20;81.10
56300;DHT22;42209;6.376;-10.782;2022-10-16T10:31:14;23.30;81.40
56300;DHT22;42209;6.376;-10.782;2022-10-16T10:34:04;23.30;81.20
56300;DHT22;42209;6.376;-10.782;2022-10-16T10:36:40;23.30;75.20
56300;DHT22;42209;6.376;-10.782;2022-10-16T10:39:28;23.00;70.90
56300;DHT22;42209;6.376;-10.782;2022-10-16T10:42:06;22.70;68.40
56300;DHT22;42209;6.376;-10.782;2022-10-16T10:47:24;22.80;75.70
56300;DHT22;42209;6.376;-10.782;2022-10-16T10:50:02;22.90;77.20
56300;DHT22;42209;6.376;-10.782;2022-10-16T10:52:48;23.00;77.90
56300;DHT22;42209;6.376;-10.782;2022-10-16T10:55:40;23.10;78.90
56300;DHT22;42209;6.376;-10.782;2022-10-16T10:58:27;23.10;79.50
56300;DHT22;42209;6.376;-10.782;2022-10-16T11:01:15;23.20;80.40
56300;DHT22;42209;6.376;-10.782;2022-10-16T11:06:50;23.30;81.50
56300;DHT22;42209;6.376;-10.782;2022-10-16T11:09:24;23.30;81.90
56300;DHT22;42209;6.376;-10.782;2022-10-16T11:12:26;23.40;81.80
56300;DHT22;42209;6.376;-10.782;2022-10-16T11:15:17;23.40;77.80
56300;DHT22;42209;6.376;-10.782;2022-10-16T11:17:52;23.10;72.00
56300;DHT22;42209;6.376;-10.782;2022-10-16T11:20:27;22.80;69.40
56300;DHT22;42209;6.376;-10.782;2022-10-16T11:23:11;22.70;73.80
56300;DHT22;42209;6.376;-10.782;2022-10-16T11:25:43;22.90;76.90
56300;DHT22;42209;6.376;-10.782;2022-10-16T11:28:32;23.00;78.10
56300;DHT22;42209;6.376;-10.782;2022-10-16T11:31:16;23.10;79.20
56300;DHT22;42209;6.376;-10.782;2022-10-16T11:33:51;23.20;80.00
56300;DHT22;42209;6.376;-10.782;2022-10-16T11:36:31;23.30;80.70
56300;DHT22;42209;6.376;-10.782;2022-10-16T11:44:09;23.40;82.30
56300;DHT22;42209;6.376;-10.782;2022-10-16T11:46:45;23.40;82.90
56300;DHT22;42209;6.376;-10.782;2022-10-16T11:49:36;23.50;80.00
56300;DHT22;42209;6.376;-10.782;2022-10-16T11:52:23;23.20;73.50
56300;DHT22;42209;6.376;-10.782;2022-10-16T11:55:06;22.90;70.90
56300;DHT22;42209;6.376;-10.782;2022-10-16T11:57:46;22.70;68.80
56300;DHT22;42209;6.376;-10.782;2022-10-16T12:03:17;22.60;65.60
56300;DHT22;42209;6.376;-10.782;2022-10-16T12:06:22;22.50;63.90
56300;DHT22;42209;6.376;-10.782;2022-10-16T12:08:52;22.40;63.90
56300;DHT22;42209;6.376;-10.782;2022-10-16T12:16:57;22.90;74.10
56300;DHT22;42209;6.376;-10.782;2022-10-16T12:19:30;23.00;75.40
56300;DHT22;42209;6.376;-10.782;2022-10-16T12:22:02;23.10;76.70
56300;DHT22;42209;6.376;-10.782;2022-10-16T12:24:44;23.10;77.70
56300;DHT22;42209;6.376;-10.782;2022-10-16T12:27:31;23.20;78.50
56300;DHT22;42209;6.376;-10.782;2022-10-16T12:30:02;23.30;79.10
56300;DHT22;42209;6.376;-10.782;2022-10-16T12:32:36;23.30;79.70
56300;DHT22;42209;6.376;-10.782;2022-10-16T12:35:23;23.30;80.40
56300;DHT22;42209;6.376;-10.782;2022-10-16T12:37:53;23.40;80.40
56300;DHT22;42209;6.376;-10.782;2022-10-16T12:42:53;23.20;71.10
56300;DHT22;42209;6.376;-10.782;2022-10-16T12:45:32;22.90;68.50
56300;DHT22;42209;6.376;-10.782;2022-10-16T12:48:02;22.70;70.30
56300;DHT22;42209;6.376;-10.782;2022-10-16T12:50:36;22.90;74.00
56300;DHT22;42209;6.376;-10.782;2022-10-16T12:53:22;23.00;75.80
56300;DHT22;42209;6.376;-10.782;2022-10-16T12:58:53;23.20;78.30
56300;DHT22;42209;6.376;-10.782;2022-10-16T13:04:27;23.40;80.20
56300;DHT22;42209;6.376;-10.782;2022-10-16T13:09:50;23.50;81.40
56300;DHT22;42209;6.376;-10.782;2022-10-16T13:15:15;23.30;71.90
56300;DHT22;42209;6.376;-10.782;2022-10-16T13:21:05;22.90;68.30
56300;DHT22;42209;6.376;-10.782;2022-10-16T13:26:31;22.70;64.50
56300;DHT22;42209;6.376;-10.782;2022-10-16T13:29:02;22.60;62.70
56300;DHT22;42209;6.376;-10.782;2022-10-16T13:31:32;22.60;61.40
56300;DHT22;42209;6.376;-10.782;2022-10-16T13:34:00;22.40;60.80
56300;DHT22;42209;6.376;-10.782;2022-10-16T13:36:45;22.40;59.60
56300;DHT22;42209;6.376;-10.782;2022-10-16T13:39:28;22.60;63.40
56300;DHT22;42209;6.376;-10.782;2022-10-16T13:42:12;22.70;68.80
56300;DHT22;42209;6.376;-10.782;2022-10-16T13:44:52;22.90;70.90
56300;DHT22;42209;6.376;-10.782;2022-10-16T13:47:26;23.00;72.70
56300;DHT22;42209;6.376;-10.782;2022-10-16T13:50:05;23.10;73.80
56300;DHT22;42209;6.376;-10.782;2022-10-16T13:52:34;23.20;75.00
56300;DHT22;42209;6.376;-10.782;2022-10-16T13:55:02;23.30;75.80
56300;DHT22;42209;6.376;-10.782;2022-10-16T13:57:31;23.30;76.90
56300;DHT22;42209;6.376;-10.782;2022-10-16T13:59:59;23.40;77.70
56300;DHT22;42209;6.376;-10.782;2022-10-16T14:02:36;23.50;78.50
56300;DHT22;42209;6.376;-10.782;2022-10-16T14:05:08;23.50;76.90
56300;DHT22;42209;6.376;-10.782;2022-10-16T14:07:38;23.30;70.40
56300;DHT22;42209;6.376;-10.782;2022-10-16T14:10:29;23.10;67.80
56300;DHT22;42209;6.376;-10.782;2022-10-16T14:13:05;22.90;65.90
56300;DHT22;42209;6.376;-10.782;2022-10-16T14:15:35;22.80;64.70
56300;DHT22;42209;6.376;-10.782;2022-10-16T14:18:04;22.60;62.80
56300;DHT22;42209;6.376;-10.782;2022-10-16T14:20:34;22.60;61.80
56300;DHT22;42209;6.376;-10.782;2022-10-16T14:23:23;22.50;60.40
56300;DHT22;42209;6.376;-10.782;2022-10-16T14:26:26;22.50;59.20
56300;DHT22;42209;6.376;-10.782;2022-10-16T14:29:10;22.50;58.10
56300;DHT22;42209;6.376;-10.782;2022-10-16T14:31:38;22.50;57.70
56300;DHT22;42209;6.376;-10.782;2022-10-16T14:34:31;22.40;57.10
56300;DHT22;42209;6.376;-10.782;2022-10-16T14:39:52;22.60;63.50
56300;DHT22;42209;6.376;-10.782;2022-10-16T14:42:22;22.80;67.00
56300;DHT22;42209;6.376;-10.782;2022-10-16T14:44:53;23.00;69.20
56300;DHT22;42209;6.376;-10.782;2022-10-16T14:47:24;23.10;70.60
56300;DHT22;42209;6.376;-10.782;2022-10-16T14:49:54;23.20;72.20
56300;DHT22;42209;6.376;-10.782;2022-10-16T14:52:22;23.30;73.30
56300;DHT22;42209;6.376;-10.782;2022-10-16T14:54:51;23.30;74.10
56300;DHT22;42209;6.376;-10.782;2022-10-16T14:57:19;23.40;75.30
56300;DHT22;42209;6.376;-10.782;2022-10-16T14:59:49;23.40;76.10
56300;DHT22;42209;6.376;-10.782;2022-10-16T15:04:48;23.50;69.90
56300;DHT22;42209;6.376;-10.782;2022-10-16T15:07:17;23.20;66.10
56300;DHT22;42209;6.376;-10.782;2022-10-16T15:09:45;23.00;65.00
56300;DHT22;42209;6.376;-10.782;2022-10-16T15:12:16;22.90;63.40
56300;DHT22;42209;6.376;-10.782;2022-10-16T15:14:45;22.80;61.60
56300;DHT22;42209;6.376;-10.782;2022-10-16T15:17:13;22.80;60.10
56300;DHT22;42209;6.376;-10.782;2022-10-16T15:19:46;22.70;59.00
56300;DHT22;42209;6.376;-10.782;2022-10-16T15:22:14;22.70;58.20
56300;DHT22;42209;6.376;-10.782;2022-10-16T15:24:42;22.70;57.20
56300;DHT22;42209;6.376;-10.782;2022-10-16T15:27:11;22.70;56.80
56300;DHT22;42209;6.376;-10.782;2022-10-16T15:29:39;22.70;56.50
56300;DHT22;42209;6.376;-10.782;2022-10-16T15:32:09;22.80;56.20
56300;DHT22;42209;6.376;-10.782;2022-10-16T15:34:38;22.90;56.20
56300;DHT22;42209;6.376;-10.782;2022-10-16T15:37:06;22.90;56.70
56300;DHT22;42209;6.376;-10.782;2022-10-16T15:39:34;23.00;60.50
56300;DHT22;42209;6.376;-10.782;2022-10-16T15:42:07;23.10;63.40
56300;DHT22;42209;6.376;-10.782;2022-10-16T15:44:36;23.20;65.60
56300;DHT22;42209;6.376;-10.782;2022-10-16T15:47:04;23.30;67.50
56300;DHT22;42209;6.376;-10.782;2022-10-16T15:49:32;23.40;68.90
56300;DHT22;42209;6.376;-10.782;2022-10-16T15:52:00;23.40;64.40
56300;DHT22;42209;6.376;-10.782;2022-10-16T15:54:28;23.20;61.10
56300;DHT22;42209;6.376;-10.782;2022-10-16T15:56:56;23.00;62.30
56300;DHT22;42209;6.376;-10.782;2022-10-16T15:59:24;23.20;66.20
56300;DHT22;42209;6.376;-10.782;2022-10-16T16:01:52;23.30;68.50
56300;DHT22;42209;6.376;-10.782;2022-10-16T16:04:21;23.40;67.90
56300;DHT22;42209;6.376;-10.782;2022-10-16T16:07:09;23.30;62.30
56300;DHT22;42209;6.376;-10.782;2022-10-16T16:09:37;23.20;60.80
56300;DHT22;42209;6.376;-10.782;2022-10-16T16:12:05;23.10;58.70
56300;DHT22;42209;6.376;-10.782;2022-10-16T16:14:34;23.00;57.60
56300;DHT22;42209;6.376;-10.782;2022-10-16T16:17:05;23.00;56.80
56300;DHT22;42209;6.376;-10.782;2022-10-16T16:19:33;23.00;55.70
56300;DHT22;42209;6.376;-10.782;2022-10-16T16:22:01;23.00;55.70
56300;DHT22;42209;6.376;-10.782;2022-10-16T16:24:33;23.00;54.80
56300;DHT22;42209;6.376;-10.782;2022-10-16T16:27:01;23.00;54.30
56300;DHT22;42209;6.376;-10.782;2022-10-16T16:29:34;23.00;54.10
56300;DHT22;42209;6.376;-10.782;2022-10-16T16:32:03;23.10;54.70
56300;DHT22;42209;6.376;-10.782;2022-10-16T16:34:31;23.20;58.60
56300;DHT22;42209;6.376;-10.782;2022-10-16T16:36:59;23.30;58.80
56300;DHT22;42209;6.376;-10.782;2022-10-16T16:39:28;23.20;55.50
56300;DHT22;42209;6.376;-10.782;2022-10-16T16:41:57;23.00;54.30
56300;DHT22;42209;6.376;-10.782;2022-10-16T16:44:25;23.10;58.90
56300;DHT22;42209;6.376;-10.782;2022-10-16T16:46:53;23.20;62.00
56300;DHT22;42209;6.376;-10.782;2022-10-16T16:49:21;23.30;64.30
56300;DHT22;42209;6.376;-10.782;2022-10-16T16:51:50;23.40;60.40
56300;DHT22;42209;6.376;-10.782;2022-10-16T16:54:18;23.20;57.50
56300;DHT22;42209;6.376;-10.782;2022-10-16T16:56:46;23.00;55.70
56300;DHT22;42209;6.376;-10.782;2022-10-16T16:59:18;23.00;54.60
56300;DHT22;42209;6.376;-10.782;2022-10-16T17:01:46;22.90;53.60
56300;DHT22;42209;6.376;-10.782;2022-10-16T17:04:22;22.80;52.60
56300;DHT22;42209;6.376;-10.782;2022-10-16T17:06:50;22.80;52.50
56300;DHT22;42209;6.376;-10.782;2022-10-16T17:09:20;22.90;51.80
56300;DHT22;42209;6.376;-10.782;2022-10-16T17:11:49;23.00;51.10
56300;DHT22;42209;6.376;-10.782;2022-10-16T17:14:17;23.00;50.50
56300;DHT22;42209;6.376;-10.782;2022-10-16T17:16:46;23.10;51.40
56300;DHT22;42209;6.376;-10.782;2022-10-16T17:19:16;23.20;54.70
56300;DHT22;42209;6.376;-10.782;2022-10-16T17:21:45;23.30;58.30
56300;DHT22;42209;6.376;-10.782;2022-10-16T17:24:15;23.30;54.80